sensor_id;sensor_type;location;lat;lon;timestamp;P1;durP1;ratioP1;P2;durP2;ratioP2
3177;SDS011;38141;42.666;23.344;2023-12-14T00:00:29;27.70;;;18.70;;
3177;SDS011;38141;42.666;23.344;2023-12-14T00:02:56;30.93;;;17.40;;
3177;SDS011;38141;42.666;23.344;2023-12-14T00:05:25;28.37;;;18.30;;
3177;SDS011;38141;42.666;23.344;2023-12-14T00:07:52;29.23;;;16.50;;
3177;SDS011;38141;42.666;23.344;2023-12-14T00:10:19;22.50;;;15.33;;
3177;SDS011;38141;42.666;23.344;2023-12-14T00:12:46;29.80;;;16.10;;
3177;SDS011;38141;42.666;23.344;2023-12-14T00:15:14;31.73;;;15.30;;
3177;SDS011;38141;42.666;23.344;2023-12-14T00:17:41;29.67;;;16.40;;
3177;SDS011;38141;42.666;23.344;2023-12-14T00:20:08;23.80;;;15.37;;
3177;SDS011;38141;42.666;23.344;2023-12-14T00:22:37;28.23;;;16.47;;
3177;SDS011;38141;42.666;23.344;2023-12-14T00:25:04;23.77;;;15.10;;
3177;SDS011;38141;42.666;23.344;2023-12-14T00:27:31;21.63;;;14.47;;
3177;SDS011;38141;42.666;23.344;2023-12-14T00:29:58;27.03;;;15.93;;
3177;SDS011;38141;42.666;23.344;2023-12-14T00:32:25;23.13;;;14.20;;
3177;SDS011;38141;42.666;23.344;2023-12-14T00:34:52;25.03;;;15.77;;
3177;SDS011;38141;42.666;23.344;2023-12-14T00:37:19;26.13;;;16.07;;
3177;SDS011;38141;42.666;23.344;2023-12-14T00:39:48;21.57;;;14.13;;
3177;SDS011;38141;42.666;23.344;2023-12-14T00:42:14;25.20;;;15.40;;
3177;SDS011;38141;42.666;23.344;2023-12-14T00:44:41;25.63;;;15.30;;
3177;SDS011;38141;42.666;23.344;2023-12-14T00:47:08;24.50;;;14.10;;
3177;SDS011;38141;42.666;23.344;2023-12-14T00:49:35;27.43;;;15.17;;
3177;SDS011;38141;42.666;23.344;2023-12-14T00:52:02;26.90;;;14.73;;
3177;SDS011;38141;42.666;23.344;2023-12-14T00:54:30;28.20;;;15.77;;
3177;SDS011;38141;42.666;23.344;2023-12-14T00:56:59;26.50;;;16.43;;
3177;SDS011;38141;42.666;23.344;2023-12-14T00:59:26;24.73;;;14.90;;
3177;SDS011;38141;42.666;23.344;2023-12-14T01:01:53;28.80;;;16.33;;
3177;SDS011;38141;42.666;23.344;2023-12-14T01:04:19;25.77;;;15.87;;
3177;SDS011;38141;42.666;23.344;2023-12-14T01:06:46;28.63;;;16.83;;
3177;SDS011;38141;42.666;23.344;2023-12-14T01:09:13;27.83;;;16.00;;
3177;SDS011;38141;42.666;23.344;2023-12-14T01:11:40;28.60;;;16.37;;
3177;SDS011;38141;42.666;23.344;2023-12-14T01:14:09;25.40;;;14.70;;
3177;SDS011;38141;42.666;23.344;2023-12-14T01:16:36;24.63;;;14.97;;
3177;SDS011;38141;42.666;23.344;2023-12-14T01:19:03;24.40;;;15.07;;
3177;SDS011;38141;42.666;23.344;2023-12-14T01:21:31;21.77;;;14.20;;
3177;SDS011;38141;42.666;23.344;2023-12-14T01:23:58;25.43;;;15.73;;
3177;SDS011;38141;42.666;23.344;2023-12-14T01:26:25;24.03;;;15.13;;
3177;SDS011;38141;42.666;23.344;2023-12-14T01:28:52;28.43;;;15.50;;
3177;SDS011;38141;42.666;23.344;2023-12-14T01:31:21;28.73;;;15.77;;
3177;SDS011;38141;42.666;23.344;2023-12-14T01:33:49;24.47;;;15.00;;
3177;SDS011;38141;42.666;23.344;2023-12-14T01:36:19;24.13;;;15.37;;
3177;SDS011;38141;42.666;23.344;2023-12-14T01:38:47;27.53;;;15.70;;
3177;SDS011;38141;42.666;23.344;2023-12-14T01:41:15;24.87;;;15.77;;
3177;SDS011;38141;42.666;23.344;2023-12-14T01:43:42;27.30;;;15.00;;
3177;SDS011;38141;42.666;23.344;2023-12-14T01:46:09;23.20;;;14.80;;
3177;SDS011;38141;42.666;23.344;2023-12-14T01:48:37;25.87;;;15.03;;
3177;SDS011;38141;42.666;23.344;2023-12-14T01:51:04;22.80;;;15.10;;
3177;SDS011;38141;42.666;23.344;2023-12-14T01:53:31;25.60;;;15.87;;
3177;SDS011;38141;42.666;23.344;2023-12-14T01:55:58;33.00;;;18.10;;
3177;SDS011;38141;42.666;23.344;2023-12-14T01:58:25;29.50;;;16.00;;
3177;SDS011;38141;42.666;23.344;2023-12-14T02:00:54;24.57;;;15.83;;
3177;SDS011;38141;42.666;23.344;2023-12-14T02:03:29;26.73;;;16.50;;
3177;SDS011;38141;42.666;23.344;2023-12-14T02:05:57;24.40;;;15.73;;
3177;SDS011;38141;42.666;23.344;2023-12-14T02:08:24;25.90;;;14.33;;
3177;SDS011;38141;42.666;23.344;2023-12-14T02:10:51;24.47;;;15.03;;
3177;SDS011;38141;42.666;23.344;2023-12-14T02:13:18;26.53;;;16.03;;
3177;SDS011;38141;42.666;23.344;2023-12-14T02:15:45;22.40;;;13.70;;
3177;SDS011;38141;42.666;23.344;2023-12-14T02:18:13;28.23;;;16.30;;
3177;SDS011;38141;42.666;23.344;2023-12-14T02:20:40;26.27;;;15.87;;
3177;SDS011;38141;42.666;23.344;2023-12-14T02:23:08;24.00;;;14.77;;
3177;SDS011;38141;42.666;23.344;2023-12-14T02:25:35;27.73;;;15.30;;
3177;SDS011;38141;42.666;23.344;2023-12-14T02:28:02;25.57;;;13.97;;
3177;SDS011;38141;42.666;23.344;2023-12-14T02:30:29;25.07;;;15.50;;
3177;SDS011;38141;42.666;23.344;2023-12-14T02:32:56;23.87;;;14.37;;
3177;SDS011;38141;42.666;23.344;2023-12-14T02:35:23;27.93;;;14.90;;
3177;SDS011;38141;42.666;23.344;2023-12-14T02:37:50;24.07;;;14.80;;
3177;SDS011;38141;42.666;23.344;2023-12-14T02:40:18;24.37;;;14.87;;
3177;SDS011;38141;42.666;23.344;2023-12-14T02:42:45;22.30;;;14.00;;
3177;SDS011;38141;42.666;23.344;2023-12-14T02:45:12;30.37;;;15.87;;
3177;SDS011;38141;42.666;23.344;2023-12-14T02:47:39;32.27;;;18.40;;
3177;SDS011;38141;42.666;23.344;2023-12-14T02:50:06;26.33;;;15.27;;
3177;SDS011;38141;42.666;23.344;2023-12-14T02:52:34;24.07;;;13.83;;
3177;SDS011;38141;42.666;23.344;2023-12-14T02:55:01;29.90;;;14.63;;
3177;SDS011;38141;42.666;23.344;2023-12-14T02:57:30;23.53;;;13.47;;
3177;SDS011;38141;42.666;23.344;2023-12-14T02:59:57;20.77;;;13.70;;
3177;SDS011;38141;42.666;23.344;2023-12-14T03:02:23;22.37;;;14.50;;
3177;SDS011;38141;42.666;23.344;2023-12-14T03:04:50;22.30;;;14.23;;
3177;SDS011;38141;42.666;23.344;2023-12-14T03:07:17;19.97;;;13.40;;
3177;SDS011;38141;42.666;23.344;2023-12-14T03:09:44;20.90;;;13.67;;
3177;SDS011;38141;42.666;23.344;2023-12-14T03:12:11;20.57;;;13.33;;
3177;SDS011;38141;42.666;23.344;2023-12-14T03:14:40;19.43;;;13.17;;
3177;SDS011;38141;42.666;23.344;2023-12-14T03:17:07;21.20;;;12.57;;
3177;SDS011;38141;42.666;23.344;2023-12-14T03:19:38;22.90;;;13.70;;
3177;SDS011;38141;42.666;23.344;2023-12-14T03:22:06;19.90;;;13.67;;
3177;SDS011;38141;42.666;23.344;2023-12-14T03:24:33;21.53;;;13.23;;
3177;SDS011;38141;42.666;23.344;2023-12-14T03:27:01;18.67;;;12.53;;
3177;SDS011;38141;42.666;23.344;2023-12-14T03:29:28;26.10;;;14.17;;
3177;SDS011;38141;42.666;23.344;2023-12-14T03:31:57;19.37;;;11.97;;
3177;SDS011;38141;42.666;23.344;2023-12-14T03:34:24;17.53;;;11.37;;
3177;SDS011;38141;42.666;23.344;2023-12-14T03:36:51;22.33;;;12.93;;
3177;SDS011;38141;42.666;23.344;2023-12-14T03:39:18;18.53;;;12.00;;
3177;SDS011;38141;42.666;23.344;2023-12-14T03:41:45;19.17;;;11.80;;
3177;SDS011;38141;42.666;23.344;2023-12-14T03:44:12;18.00;;;12.53;;
3177;SDS011;38141;42.666;23.344;2023-12-14T03:46:39;17.33;;;11.50;;
3177;SDS011;38141;42.666;23.344;2023-12-14T03:49:07;17.23;;;11.50;;
3177;SDS011;38141;42.666;23.344;2023-12-14T03:51:35;19.27;;;12.07;;
3177;SDS011;38141;42.666;23.344;2023-12-14T03:54:02;22.90;;;13.47;;
3177;SDS011;38141;42.666;23.344;2023-12-14T03:56:29;18.40;;;12.90;;
3177;SDS011;38141;42.666;23.344;2023-12-14T03:58:56;23.40;;;13.40;;
3177;SDS011;38141;42.666;23.344;2023-12-14T04:01:23;27.33;;;15.57;;
3177;SDS011;38141;42.666;23.344;2023-12-14T04:03:50;20.60;;;12.30;;
3177;SDS011;38141;42.666;23.344;2023-12-14T04:06:18;23.33;;;12.70;;
3177;SDS011;38141;42.666;23.344;2023-12-14T04:08:45;19.37;;;11.50;;
3177;SDS011;38141;42.666;23.344;2023-12-14T04:11:12;16.67;;;11.37;;
3177;SDS011;38141;42.666;23.344;2023-12-14T04:13:39;17.50;;;11.73;;
3177;SDS011;38141;42.666;23.344;2023-12-14T04:16:06;17.53;;;11.43;;
3177;SDS011;38141;42.666;23.344;2023-12-14T04:18:34;17.27;;;10.87;;
3177;SDS011;38141;42.666;23.344;2023-12-14T04:21:02;19.70;;;11.27;;
3177;SDS011;38141;42.666;23.344;2023-12-14T04:23:31;16.63;;;10.33;;
3177;SDS011;38141;42.666;23.344;2023-12-14T04:25:58;17.20;;;11.10;;
3177;SDS011;38141;42.666;23.344;2023-12-14T04:28:25;18.63;;;10.70;;
3177;SDS011;38141;42.666;23.344;2023-12-14T04:30:52;17.70;;;11.37;;
3177;SDS011;38141;42.666;23.344;2023-12-14T04:33:19;16.80;;;10.70;;
3177;SDS011;38141;42.666;23.344;2023-12-14T04:35:46;17.60;;;10.30;;
3177;SDS011;38141;42.666;23.344;2023-12-14T04:38:13;17.03;;;10.60;;
3177;SDS011;38141;42.666;23.344;2023-12-14T04:40:42;15.10;;;10.30;;
3177;SDS011;38141;42.666;23.344;2023-12-14T04:43:09;17.80;;;10.70;;
3177;SDS011;38141;42.666;23.344;2023-12-14T04:45:36;16.20;;;10.37;;
3177;SDS011;38141;42.666;23.344;2023-12-14T04:48:03;16.90;;;10.10;;
3177;SDS011;38141;42.666;23.344;2023-12-14T04:50:30;17.17;;;10.13;;
3177;SDS011;38141;42.666;23.344;2023-12-14T04:52:57;16.03;;;10.67;;
3177;SDS011;38141;42.666;23.344;2023-12-14T04:55:24;15.63;;;9.40;;
3177;SDS011;38141;42.666;23.344;2023-12-14T04:57:52;16.23;;;10.13;;
3177;SDS011;38141;42.666;23.344;2023-12-14T05:00:19;16.07;;;10.90;;
3177;SDS011;38141;42.666;23.344;2023-12-14T05:02:47;17.80;;;11.67;;
3177;SDS011;38141;42.666;23.344;2023-12-14T05:05:14;16.70;;;9.77;;
3177;SDS011;38141;42.666;23.344;2023-12-14T05:07:41;18.43;;;10.77;;
3177;SDS011;38141;42.666;23.344;2023-12-14T05:10:08;13.77;;;9.10;;
3177;SDS011;38141;42.666;23.344;2023-12-14T05:12:36;19.13;;;10.73;;
3177;SDS011;38141;42.666;23.344;2023-12-14T05:15:06;19.80;;;11.70;;
3177;SDS011;38141;42.666;23.344;2023-12-14T05:17:34;19.13;;;11.60;;
3177;SDS011;38141;42.666;23.344;2023-12-14T05:20:02;16.10;;;9.83;;
3177;SDS011;38141;42.666;23.344;2023-12-14T05:22:30;15.70;;;10.17;;
3177;SDS011;38141;42.666;23.344;2023-12-14T05:24:57;17.10;;;9.90;;
3177;SDS011;38141;42.666;23.344;2023-12-14T05:27:24;20.07;;;11.90;;
3177;SDS011;38141;42.666;23.344;2023-12-14T05:29:51;16.17;;;10.30;;
3177;SDS011;38141;42.666;23.344;2023-12-14T05:32:19;14.80;;;10.43;;
3177;SDS011;38141;42.666;23.344;2023-12-14T05:34:46;18.70;;;10.63;;
3177;SDS011;38141;42.666;23.344;2023-12-14T05:37:14;20.77;;;11.40;;
3177;SDS011;38141;42.666;23.344;2023-12-14T05:39:41;16.40;;;11.20;;
3177;SDS011;38141;42.666;23.344;2023-12-14T05:42:10;15.13;;;10.37;;
3177;SDS011;38141;42.666;23.344;2023-12-14T05:44:37;16.53;;;10.63;;
3177;SDS011;38141;42.666;23.344;2023-12-14T05:47:04;23.37;;;13.43;;
3177;SDS011;38141;42.666;23.344;2023-12-14T05:49:32;17.67;;;10.73;;
3177;SDS011;38141;42.666;23.344;2023-12-14T05:51:59;18.10;;;11.73;;
3177;SDS011;38141;42.666;23.344;2023-12-14T05:54:26;20.67;;;11.97;;
3177;SDS011;38141;42.666;23.344;2023-12-14T05:56:53;18.67;;;11.47;;
3177;SDS011;38141;42.666;23.344;2023-12-14T06:01:38;18.40;;;10.50;;
3177;SDS011;38141;42.666;23.344;2023-12-14T06:04:05;18.00;;;9.70;;
3177;SDS011;38141;42.666;23.344;2023-12-14T06:06:32;18.13;;;11.30;;
3177;SDS011;38141;42.666;23.344;2023-12-14T06:08:59;14.53;;;10.60;;
3177;SDS011;38141;42.666;23.344;2023-12-14T06:11:26;23.30;;;14.90;;
3177;SDS011;38141;42.666;23.344;2023-12-14T06:13:53;26.33;;;18.17;;
3177;SDS011;38141;42.666;23.344;2023-12-14T06:16:20;20.40;;;13.33;;
3177;SDS011;38141;42.666;23.344;2023-12-14T06:18:49;19.37;;;11.43;;
3177;SDS011;38141;42.666;23.344;2023-12-14T06:21:16;16.77;;;11.27;;
3177;SDS011;38141;42.666;23.344;2023-12-14T06:23:43;41.40;;;23.57;;
3177;SDS011;38141;42.666;23.344;2023-12-14T06:26:09;17.50;;;12.43;;
3177;SDS011;38141;42.666;23.344;2023-12-14T06:28:36;17.40;;;11.10;;
3177;SDS011;38141;42.666;23.344;2023-12-14T06:31:03;16.83;;;10.10;;
3177;SDS011;38141;42.666;23.344;2023-12-14T06:33:31;16.47;;;10.00;;
3177;SDS011;38141;42.666;23.344;2023-12-14T06:35:59;18.33;;;10.70;;
3177;SDS011;38141;42.666;23.344;2023-12-14T06:38:30;18.20;;;10.93;;
3177;SDS011;38141;42.666;23.344;2023-12-14T06:40:57;18.73;;;11.00;;
3177;SDS011;38141;42.666;23.344;2023-12-14T06:43:24;18.40;;;11.27;;
3177;SDS011;38141;42.666;23.344;2023-12-14T06:45:51;17.23;;;11.40;;
3177;SDS011;38141;42.666;23.344;2023-12-14T06:48:18;24.57;;;12.57;;
3177;SDS011;38141;42.666;23.344;2023-12-14T06:50:45;17.50;;;11.23;;
3177;SDS011;38141;42.666;23.344;2023-12-14T06:53:13;17.37;;;10.30;;
3177;SDS011;38141;42.666;23.344;2023-12-14T06:55:40;20.63;;;10.73;;
3177;SDS011;38141;42.666;23.344;2023-12-14T06:58:08;27.73;;;12.33;;
3177;SDS011;38141;42.666;23.344;2023-12-14T07:00:37;20.07;;;11.20;;
3177;SDS011;38141;42.666;23.344;2023-12-14T07:03:03;22.83;;;11.43;;
3177;SDS011;38141;42.666;23.344;2023-12-14T07:05:30;20.50;;;11.33;;
3177;SDS011;38141;42.666;23.344;2023-12-14T07:07:58;30.23;;;12.33;;
3177;SDS011;38141;42.666;23.344;2023-12-14T07:10:26;21.67;;;11.60;;
3177;SDS011;38141;42.666;23.344;2023-12-14T07:12:53;20.63;;;11.80;;
3177;SDS011;38141;42.666;23.344;2023-12-14T07:15:20;18.07;;;11.70;;
3177;SDS011;38141;42.666;23.344;2023-12-14T07:17:47;20.60;;;11.70;;
3177;SDS011;38141;42.666;23.344;2023-12-14T07:20:14;17.43;;;11.17;;
3177;SDS011;38141;42.666;23.344;2023-12-14T07:22:41;14.40;;;11.30;;
3177;SDS011;38141;42.666;23.344;2023-12-14T07:25:08;16.97;;;10.97;;
3177;SDS011;38141;42.666;23.344;2023-12-14T07:27:36;16.90;;;11.57;;
3177;SDS011;38141;42.666;23.344;2023-12-14T07:30:04;22.47;;;11.80;;
3177;SDS011;38141;42.666;23.344;2023-12-14T07:32:32;17.37;;;11.60;;
3177;SDS011;38141;42.666;23.344;2023-12-14T07:34:59;17.83;;;11.97;;
3177;SDS011;38141;42.666;23.344;2023-12-14T07:37:26;23.37;;;13.70;;
3177;SDS011;38141;42.666;23.344;2023-12-14T07:39:53;39.20;;;16.93;;
3177;SDS011;38141;42.666;23.344;2023-12-14T07:42:20;19.43;;;11.87;;
3177;SDS011;38141;42.666;23.344;2023-12-14T07:44:48;17.67;;;10.60;;
3177;SDS011;38141;42.666;23.344;2023-12-14T07:47:15;21.07;;;11.77;;
3177;SDS011;38141;42.666;23.344;2023-12-14T07:49:42;16.57;;;11.00;;
3177;SDS011;38141;42.666;23.344;2023-12-14T07:52:09;16.70;;;11.23;;
3177;SDS011;38141;42.666;23.344;2023-12-14T07:54:36;17.40;;;11.27;;
3177;SDS011;38141;42.666;23.344;2023-12-14T07:57:03;18.77;;;11.17;;
3177;SDS011;38141;42.666;23.344;2023-12-14T07:59:30;19.07;;;12.00;;
3177;SDS011;38141;42.666;23.344;2023-12-14T08:01:58;41.93;;;25.90;;
3177;SDS011;38141;42.666;23.344;2023-12-14T08:04:25;28.03;;;16.90;;
3177;SDS011;38141;42.666;23.344;2023-12-14T08:06:52;21.70;;;13.93;;
3177;SDS011;38141;42.666;23.344;2023-12-14T08:09:20;16.80;;;11.57;;
3177;SDS011;38141;42.666;23.344;2023-12-14T08:11:47;18.03;;;8.93;;
3177;SDS011;38141;42.666;23.344;2023-12-14T08:14:15;11.20;;;7.43;;
3177;SDS011;38141;42.666;23.344;2023-12-14T08:16:42;10.63;;;7.60;;
3177;SDS011;38141;42.666;23.344;2023-12-14T08:19:10;14.13;;;8.77;;
3177;SDS011;38141;42.666;23.344;2023-12-14T08:21:37;12.27;;;8.60;;
3177;SDS011;38141;42.666;23.344;2023-12-14T08:24:04;13.17;;;8.10;;
3177;SDS011;38141;42.666;23.344;2023-12-14T08:26:32;11.90;;;8.20;;
3177;SDS011;38141;42.666;23.344;2023-12-14T08:28:59;22.03;;;10.10;;
3177;SDS011;38141;42.666;23.344;2023-12-14T08:31:26;90.07;;;50.37;;
3177;SDS011;38141;42.666;23.344;2023-12-14T08:33:53;15.83;;;11.63;;
3177;SDS011;38141;42.666;23.344;2023-12-14T08:36:21;14.47;;;9.27;;
3177;SDS011;38141;42.666;23.344;2023-12-14T08:38:48;13.13;;;9.00;;
3177;SDS011;38141;42.666;23.344;2023-12-14T08:41:15;15.27;;;9.43;;
3177;SDS011;38141;42.666;23.344;2023-12-14T08:43:43;13.90;;;9.33;;
3177;SDS011;38141;42.666;23.344;2023-12-14T08:46:10;26.43;;;9.50;;
3177;SDS011;38141;42.666;23.344;2023-12-14T08:48:37;11.47;;;8.00;;
3177;SDS011;38141;42.666;23.344;2023-12-14T08:51:04;14.53;;;8.80;;
3177;SDS011;38141;42.666;23.344;2023-12-14T08:53:33;11.43;;;8.40;;
3177;SDS011;38141;42.666;23.344;2023-12-14T08:56:00;14.27;;;8.57;;
3177;SDS011;38141;42.666;23.344;2023-12-14T08:58:29;12.53;;;8.20;;
3177;SDS011;38141;42.666;23.344;2023-12-14T09:00:56;13.37;;;8.80;;
3177;SDS011;38141;42.666;23.344;2023-12-14T09:03:23;14.97;;;8.07;;
3177;SDS011;38141;42.666;23.344;2023-12-14T09:05:51;15.07;;;8.03;;
3177;SDS011;38141;42.666;23.344;2023-12-14T09:08:18;17.23;;;8.60;;
3177;SDS011;38141;42.666;23.344;2023-12-14T09:10:47;11.40;;;7.93;;
3177;SDS011;38141;42.666;23.344;2023-12-14T09:13:14;11.67;;;7.20;;
3177;SDS011;38141;42.666;23.344;2023-12-14T09:15:41;14.47;;;7.97;;
3177;SDS011;38141;42.666;23.344;2023-12-14T09:18:08;12.50;;;7.50;;
3177;SDS011;38141;42.666;23.344;2023-12-14T09:20:35;14.50;;;9.43;;
3177;SDS011;38141;42.666;23.344;2023-12-14T09:23:05;11.03;;;7.13;;
3177;SDS011;38141;42.666;23.344;2023-12-14T09:25:32;15.43;;;8.53;;
3177;SDS011;38141;42.666;23.344;2023-12-14T09:28:01;19.93;;;10.70;;
3177;SDS011;38141;42.666;23.344;2023-12-14T09:30:28;17.17;;;9.53;;
3177;SDS011;38141;42.666;23.344;2023-12-14T09:32:55;16.03;;;9.00;;
3177;SDS011;38141;42.666;23.344;2023-12-14T09:35:22;17.10;;;9.10;;
3177;SDS011;38141;42.666;23.344;2023-12-14T09:37:49;14.20;;;8.37;;
3177;SDS011;38141;42.666;23.344;2023-12-14T09:40:17;18.90;;;9.60;;
3177;SDS011;38141;42.666;23.344;2023-12-14T09:42:44;13.37;;;8.60;;
3177;SDS011;38141;42.666;23.344;2023-12-14T09:45:13;12.33;;;8.47;;
3177;SDS011;38141;42.666;23.344;2023-12-14T09:47:42;21.73;;;8.10;;
3177;SDS011;38141;42.666;23.344;2023-12-14T09:50:12;19.83;;;8.27;;
3177;SDS011;38141;42.666;23.344;2023-12-14T09:52:41;13.20;;;7.30;;
3177;SDS011;38141;42.666;23.344;2023-12-14T09:55:14;33.40;;;10.37;;
3177;SDS011;38141;42.666;23.344;2023-12-14T09:57:41;41.80;;;10.17;;
3177;SDS011;38141;42.666;23.344;2023-12-14T10:00:08;64.10;;;24.53;;
3177;SDS011;38141;42.666;23.344;2023-12-14T10:02:37;28.53;;;10.50;;
3177;SDS011;38141;42.666;23.344;2023-12-14T10:05:06;24.60;;;8.43;;
3177;SDS011;38141;42.666;23.344;2023-12-14T10:07:38;17.03;;;8.40;;
3177;SDS011;38141;42.666;23.344;2023-12-14T10:10:11;23.07;;;8.30;;
3177;SDS011;38141;42.666;23.344;2023-12-14T10:12:50;101.10;;;17.67;;
3177;SDS011;38141;42.666;23.344;2023-12-14T10:15:18;30.53;;;10.10;;
3177;SDS011;38141;42.666;23.344;2023-12-14T10:17:52;48.93;;;10.30;;
3177;SDS011;38141;42.666;23.344;2023-12-14T10:20:19;55.40;;;12.90;;
3177;SDS011;38141;42.666;23.344;2023-12-14T10:22:48;43.13;;;9.83;;
3177;SDS011;38141;42.666;23.344;2023-12-14T10:25:18;27.40;;;9.47;;
3177;SDS011;38141;42.666;23.344;2023-12-14T10:27:46;44.97;;;9.97;;
3177;SDS011;38141;42.666;23.344;2023-12-14T10:30:14;50.03;;;10.33;;
3177;SDS011;38141;42.666;23.344;2023-12-14T10:32:41;32.03;;;10.77;;
3177;SDS011;38141;42.666;23.344;2023-12-14T10:35:10;27.27;;;9.20;;
3177;SDS011;38141;42.666;23.344;2023-12-14T10:37:37;19.83;;;8.40;;
3177;SDS011;38141;42.666;23.344;2023-12-14T10:40:05;28.67;;;8.30;;
3177;SDS011;38141;42.666;23.344;2023-12-14T10:42:35;36.77;;;17.70;;
3177;SDS011;38141;42.666;23.344;2023-12-14T10:45:03;16.50;;;8.30;;
3177;SDS011;38141;42.666;23.344;2023-12-14T10:47:32;89.83;;;15.70;;
3177;SDS011;38141;42.666;23.344;2023-12-14T10:50:00;44.23;;;11.87;;
3177;SDS011;38141;42.666;23.344;2023-12-14T10:52:29;23.67;;;10.10;;
3177;SDS011;38141;42.666;23.344;2023-12-14T10:55:00;25.97;;;10.23;;
3177;SDS011;38141;42.666;23.344;2023-12-14T10:57:31;28.30;;;11.07;;
3177;SDS011;38141;42.666;23.344;2023-12-14T11:00:00;31.60;;;11.20;;
3177;SDS011;38141;42.666;23.344;2023-12-14T11:02:28;29.30;;;11.23;;
3177;SDS011;38141;42.666;23.344;2023-12-14T11:04:58;27.30;;;10.90;;
3177;SDS011;38141;42.666;23.344;2023-12-14T11:07:44;16.10;;;9.47;;
3177;SDS011;38141;42.666;23.344;2023-12-14T11:10:12;16.03;;;8.23;;
3177;SDS011;38141;42.666;23.344;2023-12-14T11:12:49;14.43;;;7.73;;
3177;SDS011;38141;42.666;23.344;2023-12-14T11:15:28;16.50;;;8.33;;
3177;SDS011;38141;42.666;23.344;2023-12-14T11:20:52;11.70;;;6.23;;
3177;SDS011;38141;42.666;23.344;2023-12-14T11:23:35;10.63;;;6.17;;
3177;SDS011;38141;42.666;23.344;2023-12-14T11:26:04;13.90;;;4.57;;
3177;SDS011;38141;42.666;23.344;2023-12-14T11:28:33;8.17;;;4.23;;
3177;SDS011;38141;42.666;23.344;2023-12-14T11:31:01;13.87;;;4.60;;
3177;SDS011;38141;42.666;23.344;2023-12-14T11:33:32;10.00;;;4.17;;
3177;SDS011;38141;42.666;23.344;2023-12-14T11:36:00;11.50;;;4.30;;
3177;SDS011;38141;42.666;23.344;2023-12-14T11:38:28;8.63;;;3.87;;
3177;SDS011;38141;42.666;23.344;2023-12-14T11:40:58;13.17;;;3.90;;
3177;SDS011;38141;42.666;23.344;2023-12-14T11:43:25;13.13;;;3.80;;
3177;SDS011;38141;42.666;23.344;2023-12-14T11:45:53;8.50;;;2.80;;
3177;SDS011;38141;42.666;23.344;2023-12-14T11:48:21;9.90;;;2.57;;
3177;SDS011;38141;42.666;23.344;2023-12-14T11:50:48;9.57;;;3.13;;
3177;SDS011;38141;42.666;23.344;2023-12-14T11:53:15;16.20;;;3.43;;
3177;SDS011;38141;42.666;23.344;2023-12-14T11:55:42;9.30;;;2.40;;
3177;SDS011;38141;42.666;23.344;2023-12-14T11:58:13;4.77;;;2.73;;
3177;SDS011;38141;42.666;23.344;2023-12-14T12:00:42;3.30;;;2.10;;
3177;SDS011;38141;42.666;23.344;2023-12-14T12:03:12;4.23;;;2.43;;
3177;SDS011;38141;42.666;23.344;2023-12-14T12:05:41;6.20;;;2.60;;
3177;SDS011;38141;42.666;23.344;2023-12-14T12:08:12;4.10;;;2.23;;
3177;SDS011;38141;42.666;23.344;2023-12-14T12:10:40;6.63;;;2.23;;
3177;SDS011;38141;42.666;23.344;2023-12-14T12:13:11;6.07;;;2.40;;
3177;SDS011;38141;42.666;23.344;2023-12-14T12:15:40;3.57;;;2.27;;
3177;SDS011;38141;42.666;23.344;2023-12-14T12:18:08;4.03;;;2.37;;
3177;SDS011;38141;42.666;23.344;2023-12-14T12:20:36;2.33;;;1.73;;
3177;SDS011;38141;42.666;23.344;2023-12-14T12:23:07;2.73;;;2.17;;
3177;SDS011;38141;42.666;23.344;2023-12-14T12:25:34;5.83;;;2.00;;
3177;SDS011;38141;42.666;23.344;2023-12-14T12:28:02;3.03;;;1.53;;
3177;SDS011;38141;42.666;23.344;2023-12-14T12:30:31;3.00;;;1.50;;
3177;SDS011;38141;42.666;23.344;2023-12-14T12:32:59;2.80;;;1.50;;
3177;SDS011;38141;42.666;23.344;2023-12-14T12:35:26;5.60;;;2.50;;
3177;SDS011;38141;42.666;23.344;2023-12-14T12:37:55;4.73;;;2.40;;
3177;SDS011;38141;42.666;23.344;2023-12-14T12:40:23;4.30;;;2.03;;
3177;SDS011;38141;42.666;23.344;2023-12-14T12:42:51;3.97;;;2.07;;
3177;SDS011;38141;42.666;23.344;2023-12-14T12:45:18;1.93;;;1.40;;
3177;SDS011;38141;42.666;23.344;2023-12-14T12:47:48;6.07;;;1.77;;
3177;SDS011;38141;42.666;23.344;2023-12-14T12:50:16;3.30;;;1.70;;
3177;SDS011;38141;42.666;23.344;2023-12-14T12:52:43;3.33;;;1.70;;
3177;SDS011;38141;42.666;23.344;2023-12-14T12:55:13;4.80;;;1.60;;
3177;SDS011;38141;42.666;23.344;2023-12-14T12:57:41;2.80;;;1.60;;
3177;SDS011;38141;42.666;23.344;2023-12-14T13:00:08;4.37;;;1.63;;
3177;SDS011;38141;42.666;23.344;2023-12-14T13:02:37;5.50;;;1.53;;
3177;SDS011;38141;42.666;23.344;2023-12-14T13:05:09;3.17;;;1.40;;
3177;SDS011;38141;42.666;23.344;2023-12-14T13:07:37;9.23;;;2.07;;
3177;SDS011;38141;42.666;23.344;2023-12-14T13:10:05;19.60;;;3.07;;
3177;SDS011;38141;42.666;23.344;2023-12-14T13:12:33;16.00;;;3.03;;
3177;SDS011;38141;42.666;23.344;2023-12-14T13:15:00;13.20;;;2.10;;
3177;SDS011;38141;42.666;23.344;2023-12-14T13:17:27;14.23;;;2.30;;
3177;SDS011;38141;42.666;23.344;2023-12-14T13:19:55;75.80;;;15.73;;
3177;SDS011;38141;42.666;23.344;2023-12-14T13:22:23;16.10;;;4.03;;
3177;SDS011;38141;42.666;23.344;2023-12-14T13:24:50;22.43;;;2.70;;
3177;SDS011;38141;42.666;23.344;2023-12-14T13:27:18;10.97;;;2.20;;
3177;SDS011;38141;42.666;23.344;2023-12-14T13:29:45;17.00;;;2.80;;
3177;SDS011;38141;42.666;23.344;2023-12-14T13:32:12;6.20;;;2.43;;
3177;SDS011;38141;42.666;23.344;2023-12-14T13:34:39;3.10;;;1.53;;
3177;SDS011;38141;42.666;23.344;2023-12-14T13:37:07;3.87;;;1.90;;
3177;SDS011;38141;42.666;23.344;2023-12-14T13:39:36;3.07;;;1.50;;
3177;SDS011;38141;42.666;23.344;2023-12-14T13:42:04;4.90;;;1.47;;
3177;SDS011;38141;42.666;23.344;2023-12-14T13:44:31;4.73;;;1.87;;
3177;SDS011;38141;42.666;23.344;2023-12-14T13:47:00;11.93;;;2.50;;
3177;SDS011;38141;42.666;23.344;2023-12-14T13:49:27;41.10;;;4.93;;
3177;SDS011;38141;42.666;23.344;2023-12-14T13:51:54;46.73;;;6.07;;
3177;SDS011;38141;42.666;23.344;2023-12-14T13:54:24;22.17;;;2.60;;
3177;SDS011;38141;42.666;23.344;2023-12-14T13:56:53;33.90;;;4.10;;
3177;SDS011;38141;42.666;23.344;2023-12-14T13:59:20;33.60;;;4.17;;
3177;SDS011;38141;42.666;23.344;2023-12-14T14:01:48;5.50;;;1.67;;
3177;SDS011;38141;42.666;23.344;2023-12-14T14:04:15;7.20;;;1.97;;
3177;SDS011;38141;42.666;23.344;2023-12-14T14:06:43;2.53;;;1.80;;
3177;SDS011;38141;42.666;23.344;2023-12-14T14:09:11;70.23;;;8.60;;
3177;SDS011;38141;42.666;23.344;2023-12-14T14:11:39;15.93;;;3.13;;
3177;SDS011;38141;42.666;23.344;2023-12-14T14:14:12;22.43;;;3.90;;
3177;SDS011;38141;42.666;23.344;2023-12-14T14:16:39;28.07;;;3.50;;
3177;SDS011;38141;42.666;23.344;2023-12-14T14:19:07;19.30;;;3.33;;
3177;SDS011;38141;42.666;23.344;2023-12-14T14:21:34;80.47;;;8.83;;
3177;SDS011;38141;42.666;23.344;2023-12-14T14:24:01;38.20;;;5.90;;
3177;SDS011;38141;42.666;23.344;2023-12-14T14:26:28;12.10;;;2.57;;
3177;SDS011;38141;42.666;23.344;2023-12-14T14:28:55;11.23;;;2.87;;
3177;SDS011;38141;42.666;23.344;2023-12-14T14:31:26;18.43;;;2.20;;
3177;SDS011;38141;42.666;23.344;2023-12-14T14:33:57;5.03;;;1.77;;
3177;SDS011;38141;42.666;23.344;2023-12-14T14:36:24;3.60;;;2.80;;